createdAt,value
2022-09-26T00:00:40.730Z,11.10
2022-09-26T00:04:04.917Z,11.10
2022-09-26T00:07:26.457Z,11.10
2022-09-26T00:10:54.643Z,11.00
2022-09-26T00:14:17.676Z,10.90
2022-09-26T00:17:39.241Z,10.70
2022-09-26T00:21:06.195Z,10.60
2022-09-26T00:24:27.725Z,10.60
2022-09-26T00:27:49.353Z,10.60
2022-09-26T00:31:11.984Z,10.60
2022-09-26T00:34:33.556Z,10.60
2022-09-26T00:37:56.450Z,10.60
2022-09-26T00:41:18.004Z,10.50
2022-09-26T00:44:45.009Z,10.40
2022-09-26T00:48:06.609Z,10.30
2022-09-26T00:51:28.296Z,10.20
2022-09-26T00:54:52.169Z,10.20
2022-09-26T00:58:15.788Z,10.20
2022-09-26T01:01:37.516Z,10.10
2022-09-26T01:04:59.331Z,9.90
2022-09-26T01:08:25.295Z,9.80
2022-09-26T01:11:48.316Z,9.80
2022-09-26T01:15:11.044Z,9.80
2022-09-26T01:18:32.896Z,9.90
2022-09-26T01:22:07.556Z,9.90
2022-09-26T01:25:36.228Z,9.90
2022-09-26T01:29:10.592Z,9.80
2022-09-26T01:32:41.848Z,9.70
2022-09-26T01:36:24.635Z,9.60
2022-09-26T01:39:52.698Z,9.50
2022-09-26T01:43:17.046Z,9.50
2022-09-26T01:46:41.239Z,9.40
2022-09-26T01:50:06.770Z,9.30
2022-09-26T01:53:31.711Z,9.20
2022-09-26T01:56:54.196Z,9.20
2022-09-26T02:00:15.822Z,9.20
2022-09-26T02:03:39.177Z,9.20
2022-09-26T02:07:04.575Z,9.20
2022-09-26T02:10:27.629Z,9.20
2022-09-26T02:13:50.640Z,9.20
2022-09-26T02:17:14.636Z,9.20
2022-09-26T02:20:37.895Z,9.20
2022-09-26T02:24:01.501Z,9.20
2022-09-26T02:27:24.357Z,9.20
2022-09-26T02:30:47.545Z,9.20
2022-09-26T02:34:09.112Z,9.30
2022-09-26T02:37:30.668Z,9.30
2022-09-26T02:40:56.719Z,9.40
2022-09-26T02:44:25.751Z,9.40
2022-09-26T02:48:00.409Z,9.40
2022-09-26T02:51:29.570Z,9.50
2022-09-26T02:54:56.425Z,9.50
2022-09-26T02:58:23.970Z,9.50
2022-09-26T03:01:48.303Z,9.50
2022-09-26T03:05:11.791Z,9.60
2022-09-26T03:08:35.871Z,9.60
2022-09-26T03:11:59.094Z,9.70
2022-09-26T03:15:23.257Z,9.70
2022-09-26T03:18:49.142Z,9.80
2022-09-26T03:22:10.776Z,9.80
2022-09-26T03:25:32.544Z,9.80
2022-09-26T03:28:54.390Z,9.90
2022-09-26T03:32:17.364Z,9.90
2022-09-26T03:35:38.918Z,9.90
2022-09-26T03:39:00.499Z,9.90
2022-09-26T03:42:22.060Z,9.90
2022-09-26T03:45:43.651Z,9.90
2022-09-26T03:49:06.655Z,9.90
2022-09-26T03:52:28.634Z,9.90
2022-09-26T03:55:50.203Z,9.90
2022-09-26T03:59:11.839Z,9.80
2022-09-26T04:02:33.535Z,9.80
2022-09-26T04:05:56.475Z,9.80
2022-09-26T04:09:18.089Z,9.80
2022-09-26T04:12:40.177Z,9.70
2022-09-26T04:16:02.035Z,9.80
2022-09-26T04:19:23.841Z,9.80
2022-09-26T04:22:46.743Z,9.80
2022-09-26T04:26:08.965Z,9.80
2022-09-26T04:29:30.521Z,9.70
2022-09-26T04:32:52.099Z,9.70
2022-09-26T04:36:14.475Z,9.70
2022-09-26T04:39:37.643Z,9.70
2022-09-26T04:42:59.259Z,9.70
2022-09-26T04:46:24.517Z,9.70
2022-09-26T04:49:48.559Z,9.70
2022-09-26T04:53:10.185Z,9.70
2022-09-26T04:56:33.093Z,9.70
2022-09-26T04:59:54.631Z,9.70
2022-09-26T05:03:16.788Z,9.70
2022-09-26T05:06:38.340Z,9.70
2022-09-26T05:09:59.893Z,9.70
2022-09-26T05:13:22.983Z,9.70
2022-09-26T05:16:44.615Z,9.70
2022-09-26T05:20:07.457Z,9.70
2022-09-26T05:23:29.286Z,9.70
2022-09-26T05:26:52.140Z,9.70
2022-09-26T05:30:15.171Z,9.60
2022-09-26T05:33:36.750Z,9.60
2022-09-26T05:36:58.589Z,9.60
2022-09-26T05:40:20.234Z,9.60
2022-09-26T05:43:41.922Z,9.70
2022-09-26T05:47:04.896Z,9.70
2022-09-26T05:50:26.473Z,9.80
2022-09-26T05:53:48.973Z,9.80
2022-09-26T05:57:10.516Z,9.90
2022-09-26T06:00:32.053Z,10.00
2022-09-26T06:03:54.937Z,10.10
2022-09-26T06:07:16.576Z,10.30
2022-09-26T06:10:38.532Z,10.40
2022-09-26T06:14:00.088Z,10.40
2022-09-26T06:17:21.660Z,10.40
2022-09-26T06:20:44.544Z,10.50
2022-09-26T06:24:06.198Z,10.60
2022-09-26T06:27:27.735Z,10.80
2022-09-26T06:30:49.263Z,11.00
2022-09-26T06:34:10.937Z,11.20
2022-09-26T06:37:33.976Z,11.30
2022-09-26T06:40:55.579Z,11.40
2022-09-26T06:44:17.168Z,11.50
2022-09-26T06:47:38.706Z,11.50
2022-09-26T06:51:00.334Z,11.40
2022-09-26T06:54:23.273Z,11.50
2022-09-26T06:57:44.835Z,11.50
2022-09-26T07:01:06.542Z,11.70
2022-09-26T07:04:28.283Z,11.70
2022-09-26T07:07:49.877Z,11.80
2022-09-26T07:11:38.293Z,11.80
2022-09-26T07:14:54.390Z,11.80
2022-09-26T07:18:16.042Z,11.90
2022-09-26T07:21:37.602Z,12.00
2022-09-26T07:24:59.142Z,12.10
2022-09-26T07:28:22.052Z,12.10
2022-09-26T07:31:43.719Z,12.20
2022-09-26T07:35:05.754Z,12.70
2022-09-26T07:38:27.331Z,13.10
2022-09-26T07:41:48.876Z,13.60
2022-09-26T07:45:28.787Z,13.70
2022-09-26T07:48:51.107Z,13.70
2022-09-26T07:52:12.652Z,13.80
2022-09-26T07:55:34.188Z,13.70
2022-09-26T07:58:55.762Z,13.70
2022-09-26T08:02:21.560Z,13.90
2022-09-26T08:05:43.221Z,13.90
2022-09-26T08:09:04.801Z,13.80
2022-09-26T08:12:26.374Z,13.60
2022-09-26T08:15:48.020Z,13.50
2022-09-26T08:19:12.762Z,13.40
2022-09-26T08:22:34.370Z,13.50
2022-09-26T08:25:55.915Z,13.80
2022-09-26T08:29:17.487Z,14.10
2022-09-26T08:32:39.055Z,14.40
2022-09-26T08:36:04.039Z,14.50
2022-09-26T08:39:28.059Z,14.70
2022-09-26T08:42:58.334Z,15.20
2022-09-26T08:46:25.278Z,16.10
2022-09-26T08:53:12.186Z,19.10
2022-09-26T08:56:35.582Z,19.90
2022-09-26T08:59:57.588Z,21.60
2022-09-26T09:03:23.107Z,22.00
2022-09-26T09:06:44.792Z,21.80
2022-09-26T09:10:10.931Z,20.80
2022-09-26T09:13:42.817Z,20.60
2022-09-26T09:17:09.360Z,20.00
2022-09-26T09:20:38.775Z,20.40
2022-09-26T09:24:09.900Z,20.40
2022-09-26T09:28:02.628Z,18.90
2022-09-26T09:31:25.778Z,17.90
2022-09-26T09:34:53.042Z,18.40
2022-09-26T09:38:16.449Z,19.70
2022-09-26T09:41:40.125Z,20.00
2022-09-26T09:45:05.392Z,19.70
2022-09-26T09:48:27.353Z,19.70
2022-09-26T09:51:55.760Z,19.40
2022-09-26T09:55:25.474Z,19.10
2022-09-26T09:59:03.354Z,18.40
2022-09-26T10:02:31.021Z,18.60
2022-09-26T10:05:56.280Z,19.70
2022-09-26T10:09:38.789Z,19.10
2022-09-26T10:13:00.929Z,19.00
2022-09-26T10:16:23.027Z,19.10
2022-09-26T10:19:46.492Z,19.30
2022-09-26T10:23:11.511Z,19.60
2022-09-26T10:26:34.220Z,19.70
2022-09-26T10:29:56.590Z,18.70
2022-09-26T10:33:24.004Z,18.50
2022-09-26T10:36:46.929Z,18.40
2022-09-26T10:40:21.029Z,18.20
2022-09-26T10:43:51.481Z,17.80
2022-09-26T10:47:13.840Z,17.50
2022-09-26T10:50:35.416Z,17.40
2022-09-26T10:54:00.375Z,17.70
2022-09-26T10:57:24.695Z,17.90
2022-09-26T11:00:47.465Z,18.00
2022-09-26T11:04:14.053Z,18.00
2022-09-26T11:07:38.689Z,17.80
2022-09-26T11:11:02.814Z,17.80
2022-09-26T11:14:28.192Z,18.10
2022-09-26T11:17:50.827Z,17.90
2022-09-26T11:21:28.173Z,17.80
2022-09-26T11:24:54.884Z,17.40
2022-09-26T11:28:20.674Z,17.00
2022-09-26T11:31:42.665Z,16.80
2022-09-26T11:35:04.640Z,16.60
2022-09-26T11:38:36.103Z,16.30
2022-09-26T11:42:03.076Z,15.40
2022-09-26T11:45:33.693Z,14.90
2022-09-26T11:49:02.582Z,14.60
2022-09-26T11:52:45.535Z,14.90
2022-09-26T11:56:17.001Z,15.00
2022-09-26T11:59:55.001Z,15.30
2022-09-26T12:03:26.824Z,15.50
2022-09-26T12:06:53.744Z,15.60
2022-09-26T12:10:21.435Z,15.50
2022-09-26T12:13:47.947Z,15.50
2022-09-26T12:17:14.523Z,15.90
2022-09-26T12:20:43.394Z,16.10
2022-09-26T12:24:10.210Z,16.30
2022-09-26T12:27:34.802Z,16.20
2022-09-26T12:31:01.369Z,16.50
2022-09-26T12:34:37.887Z,16.30
2022-09-26T12:38:08.468Z,16.30
2022-09-26T12:41:47.781Z,16.10
2022-09-26T12:45:24.249Z,16.00
2022-09-26T12:48:53.520Z,15.70
2022-09-26T12:52:27.037Z,15.70
2022-09-26T12:55:55.010Z,15.80
2022-09-26T12:59:23.327Z,16.00
2022-09-26T13:03:02.921Z,15.90
2022-09-26T13:06:39.397Z,15.80
2022-09-26T13:10:09.037Z,15.70
2022-09-26T13:13:41.310Z,15.60
2022-09-26T13:17:08.206Z,15.40
2022-09-26T13:20:34.263Z,15.10
2022-09-26T13:23:58.509Z,14.80
2022-09-26T13:27:21.965Z,14.20
2022-09-26T13:30:47.917Z,13.90
2022-09-26T13:34:11.878Z,13.60
2022-09-26T13:37:37.301Z,13.60
2022-09-26T13:41:03.897Z,13.80
2022-09-26T13:44:29.924Z,13.90
2022-09-26T13:47:56.470Z,14.20
2022-09-26T13:51:21.601Z,14.80
2022-09-26T13:54:53.373Z,15.20
2022-09-26T13:58:19.961Z,15.20
2022-09-26T14:01:56.554Z,15.20
2022-09-26T14:05:45.480Z,15.20
2022-09-26T14:09:21.905Z,15.30
2022-09-26T14:12:55.177Z,15.30
2022-09-26T14:16:31.622Z,15.30
2022-09-26T14:19:54.079Z,15.50
2022-09-26T14:23:30.541Z,15.50
2022-09-26T14:27:02.026Z,15.40
2022-09-26T14:30:25.642Z,15.40
2022-09-26T14:33:49.507Z,15.40
2022-09-26T14:37:25.158Z,15.30
2022-09-26T14:40:53.439Z,15.20
2022-09-26T14:44:17.991Z,15.30
2022-09-26T14:47:43.138Z,15.20
2022-09-26T14:51:06.411Z,15.10
2022-09-26T14:54:29.151Z,15.10
2022-09-26T14:57:50.722Z,15.10
2022-09-26T15:01:16.472Z,15.00
2022-09-26T15:04:41.140Z,15.00
2022-09-26T15:08:02.932Z,14.80
2022-09-26T15:11:32.748Z,14.70
2022-09-26T15:14:55.768Z,14.70
2022-09-26T15:18:23.750Z,14.80
2022-09-26T15:21:48.084Z,14.80
2022-09-26T15:25:10.819Z,14.90
2022-09-26T15:28:37.023Z,14.80
2022-09-26T15:31:58.724Z,14.70
2022-09-26T15:35:21.839Z,14.50
2022-09-26T15:38:47.071Z,14.50
2022-09-26T15:42:22.648Z,14.40
2022-09-26T15:45:54.940Z,14.40
2022-09-26T15:49:21.061Z,14.30
2022-09-26T15:52:45.412Z,14.10
2022-09-26T15:56:08.744Z,14.10
2022-09-26T15:59:31.310Z,14.00
2022-09-26T16:02:52.936Z,14.00
2022-09-26T16:06:20.367Z,13.80
2022-09-26T16:09:44.519Z,13.70
2022-09-26T16:13:17.062Z,13.60
2022-09-26T16:16:38.637Z,13.40
2022-09-26T16:20:02.448Z,13.40
2022-09-26T16:23:25.232Z,13.40
2022-09-26T16:26:49.227Z,13.30
2022-09-26T16:30:25.677Z,13.30
2022-09-26T16:33:49.528Z,13.20
2022-09-26T16:37:16.598Z,13.10
2022-09-26T16:40:38.213Z,13.10
2022-09-26T16:44:08.342Z,13.10
2022-09-26T16:47:32.970Z,13.00
2022-09-26T16:51:09.423Z,13.00
2022-09-26T16:54:31.005Z,13.00
2022-09-26T16:57:54.591Z,12.90
2022-09-26T17:01:18.048Z,12.80
2022-09-26T17:04:43.372Z,12.80
2022-09-26T17:08:04.934Z,12.70
2022-09-26T17:11:27.372Z,12.70
2022-09-26T17:14:50.091Z,12.70
2022-09-26T17:18:20.220Z,12.60
2022-09-26T17:21:42.376Z,12.60
2022-09-26T17:25:04.409Z,12.60
2022-09-26T17:28:31.102Z,12.50
2022-09-26T17:31:55.540Z,12.40
2022-09-26T17:35:21.910Z,12.40
2022-09-26T17:38:43.857Z,12.30
2022-09-26T17:42:07.629Z,12.30
2022-09-26T17:45:30.419Z,12.20
2022-09-26T17:48:52.804Z,12.20
2022-09-26T17:52:21.139Z,12.10
2022-09-26T17:55:46.790Z,12.10
2022-09-26T17:59:13.651Z,12.10
2022-09-26T18:02:37.513Z,12.10
2022-09-26T18:06:00.034Z,12.10
2022-09-26T18:09:29.281Z,12.00
2022-09-26T18:12:55.429Z,12.00
2022-09-26T18:16:17.791Z,11.90
2022-09-26T18:19:39.744Z,11.90
2022-09-26T18:23:01.481Z,11.90
2022-09-26T18:26:28.795Z,11.90
2022-09-26T18:29:50.439Z,11.90
2022-09-26T18:33:12.802Z,12.00
2022-09-26T18:36:34.433Z,12.00
2022-09-26T18:40:00.106Z,12.00
2022-09-26T18:43:26.159Z,12.00
2022-09-26T18:46:47.819Z,12.00
2022-09-26T18:50:17.783Z,12.10
2022-09-26T18:53:39.383Z,12.10
2022-09-26T18:57:00.937Z,12.10
2022-09-26T19:00:23.854Z,12.10
2022-09-26T19:03:46.745Z,12.20
2022-09-26T19:07:08.446Z,12.30
2022-09-26T19:10:30.161Z,12.30
2022-09-26T19:13:52.177Z,12.20
2022-09-26T19:17:15.077Z,12.20
2022-09-26T19:20:36.696Z,12.20
2022-09-26T19:23:59.025Z,12.20
2022-09-26T19:27:22.773Z,12.20
2022-09-26T19:30:44.413Z,12.20
2022-09-26T19:34:09.403Z,12.20
2022-09-26T19:37:30.981Z,12.30
2022-09-26T19:40:52.908Z,12.30
2022-09-26T19:44:14.649Z,12.40
2022-09-26T19:47:37.275Z,12.40
2022-09-26T19:51:00.322Z,12.50
2022-09-26T19:54:21.922Z,12.50
2022-09-26T19:57:43.485Z,12.50
2022-09-26T20:01:12.948Z,12.50
2022-09-26T20:04:34.954Z,12.50
2022-09-26T20:07:57.873Z,12.50
2022-09-26T20:11:19.603Z,12.50
2022-09-26T20:14:41.160Z,12.50
2022-09-26T20:18:02.906Z,12.50
2022-09-26T20:21:25.959Z,12.50
2022-09-26T20:24:51.280Z,12.50
2022-09-26T20:28:13.134Z,12.50
2022-09-26T20:31:34.743Z,12.50
2022-09-26T20:34:56.338Z,12.50
2022-09-26T20:38:25.068Z,12.50
2022-09-26T20:41:48.267Z,12.50
2022-09-26T20:45:14.562Z,12.60
2022-09-26T20:48:37.022Z,12.60
2022-09-26T20:51:59.855Z,12.50
2022-09-26T20:55:21.684Z,12.40
2022-09-26T20:58:44.577Z,12.20
2022-09-26T21:02:24.476Z,12.10
2022-09-26T21:05:46.179Z,11.90
2022-09-26T21:09:11.672Z,11.90
2022-09-26T21:12:33.215Z,11.80
2022-09-26T21:15:56.140Z,11.80
2022-09-26T21:19:19.317Z,11.80
2022-09-26T21:22:40.858Z,11.90
2022-09-26T21:26:02.411Z,11.90
2022-09-26T21:29:24.048Z,11.90
2022-09-26T21:32:48.216Z,11.90
2022-09-26T21:36:09.833Z,11.90
2022-09-26T21:39:31.406Z,11.90
2022-09-26T21:42:54.547Z,11.80
2022-09-26T21:46:16.310Z,11.80
2022-09-26T21:49:39.272Z,11.70
2022-09-26T21:53:02.246Z,11.70
2022-09-26T21:56:26.158Z,11.50
2022-09-26T21:59:48.035Z,11.40
2022-09-26T22:03:09.588Z,11.30
2022-09-26T22:06:33.643Z,11.20
2022-09-26T22:09:55.188Z,11.10
2022-09-26T22:13:16.720Z,11.10
2022-09-26T22:16:38.311Z,11.00
2022-09-26T22:19:59.935Z,11.00
2022-09-26T22:23:22.842Z,10.90
2022-09-26T22:26:44.392Z,10.70
2022-09-26T22:30:06.836Z,10.70
2022-09-26T22:33:28.436Z,10.60
2022-09-26T22:36:50.057Z,10.50
2022-09-26T22:40:13.014Z,10.50
2022-09-26T22:43:34.678Z,10.40
2022-09-26T22:46:56.239Z,10.40
2022-09-26T22:50:17.827Z,10.30
2022-09-26T22:53:39.856Z,10.30
2022-09-26T22:57:02.813Z,10.30
2022-09-26T23:00:24.710Z,10.30
2022-09-26T23:03:46.363Z,10.30
2022-09-26T23:07:07.914Z,10.20
2022-09-26T23:10:29.456Z,10.20
2022-09-26T23:13:52.540Z,10.20
2022-09-26T23:17:14.167Z,10.10
2022-09-26T23:20:37.484Z,10.10
2022-09-26T23:23:59.063Z,10.10
2022-09-26T23:27:20.633Z,10.10
2022-09-26T23:30:43.901Z,10.00
2022-09-26T23:34:05.659Z,10.00
2022-09-26T23:37:27.205Z,10.00
2022-09-26T23:40:48.822Z,10.00
2022-09-26T23:44:10.400Z,10.00
2022-09-26T23:47:33.296Z,10.00
2022-09-26T23:50:54.843Z,10.00
2022-09-26T23:54:16.402Z,10.00
2022-09-26T23:57:37.952Z,10.00
